Time;durP1;ratioP1;P1;durP2;ratioP2;P2;SDS_P1;SDS_P2;PMS_P1;PMS_P2;Temp;Humidity;BMP_temperature;BMP_pressure;BME280_temperature;BME280_humidity;BME280_pressure;Samples;Min_cycle;Max_cycle;Signal;HPM_P1;HPM_P2
2022/05/24 00:00:57;;;;;;;1.83;1.20;;;18.20;78.40;;;;;;4112997;28;20500;-55
2022/05/24 00:03:00;;;;;;;2.88;1.10;;;18.20;78.50;;;;;;4117353;28;20042;-58
2022/05/24 00:05:03;;;;;;;3.63;1.40;;;18.20;78.40;;;;;;4108198;28;20092;-59
2022/05/24 00:07:05;;;;;;;7.28;1.38;;;18.30;78.40;;;;;;4108883;28;20159;-52
2022/05/24 00:09:07;;;;;;;3.00;1.42;;;18.30;78.40;;;;;;4115902;28;20136;-59
2022/05/24 00:11:10;;;;;;;5.63;1.23;;;18.30;78.40;;;;;;4110513;28;20473;-54
2022/05/24 00:13:12;;;;;;;2.55;1.15;;;18.30;78.50;;;;;;4110053;28;20144;-55
2022/05/24 00:15:23;;;;;;;1.85;0.90;;;18.30;78.50;;;;;;4114078;28;20052;-56
2022/05/24 00:17:25;;;;;;;1.70;1.00;;;18.30;78.30;;;;;;4116058;28;20053;-55
2022/05/24 00:19:27;;;;;;;3.67;0.98;;;18.30;78.40;;;;;;4113874;28;20129;-56
2022/05/24 00:21:29;;;;;;;4.28;1.23;;;18.40;78.30;;;;;;4109198;28;20072;-56
2022/05/24 00:23:33;;;;;;;1.48;1.10;;;18.40;78.40;;;;;;4111718;28;20045;-56
2022/05/24 00:25:38;;;;;;;1.65;1.23;;;18.40;78.30;;;;;;4117243;28;20806;-53
2022/05/24 00:27:40;;;;;;;1.58;1.05;;;18.40;78.30;;;;;;4108998;28;20368;-52
2022/05/24 00:29:42;;;;;;;2.40;1.05;;;18.40;78.40;;;;;;4108511;28;20425;-58
2022/05/24 00:31:44;;;;;;;1.65;0.80;;;18.40;78.40;;;;;;4114421;28;20151;-55
2022/05/24 00:33:46;;;;;;;1.98;0.98;;;18.40;78.40;;;;;;4115181;28;20057;-56
2022/05/24 00:35:50;;;;;;;2.05;1.15;;;18.40;78.40;;;;;;4109608;28;20376;-60
2022/05/24 00:37:51;;;;;;;;;;;18.40;78.40;;;;;;4111273;28;20076;-54
2022/05/24 00:39:54;;;;;;;6.15;0.90;;;18.40;78.40;;;;;;4116844;28;19998;-58
2022/05/24 00:42:19;;;;;;;1.70;1.08;;;18.40;78.50;;;;;;4109639;28;21134;-58
2022/05/24 00:44:33;;;;;;;1.38;0.90;;;18.40;78.50;;;;;;4117416;28;20944;-55
2022/05/24 00:47:03;;;;;;;3.00;1.20;;;18.40;78.40;;;;;;4116181;28;20136;-58
2022/05/24 00:49:21;;;;;;;2.03;0.90;;;18.50;78.30;;;;;;4109094;28;20516;-58
2022/05/24 00:51:38;;;;;;;2.00;0.82;;;18.50;78.20;;;;;;4113213;28;21421;-58
2022/05/24 00:53:48;;;;;;;2.33;0.80;;;18.50;78.20;;;;;;4114724;28;20085;-51
2022/05/24 00:56:13;;;;;;;2.30;0.90;;;18.50;78.20;;;;;;4116573;28;20628;-58
2022/05/24 00:58:43;;;;;;;2.30;0.70;;;18.50;78.10;;;;;;4110193;28;20264;-56
2022/05/24 01:00:45;;;;;;;1.70;0.75;;;18.60;78.00;;;;;;4112600;28;20131;-58
2022/05/24 01:02:48;;;;;;;1.45;0.80;;;18.60;77.90;;;;;;4108730;28;20045;-59
2022/05/24 01:04:50;;;;;;;0.80;0.68;;;18.60;77.90;;;;;;4111882;28;20045;-59
2022/05/24 01:06:52;;;;;;;0.70;0.70;;;18.60;77.80;;;;;;4116414;28;20759;-59
2022/05/24 01:08:58;;;;;;;2.17;1.02;;;18.60;77.80;;;;;;4109757;28;20111;-59
2022/05/24 01:11:02;;;;;;;1.75;0.93;;;18.60;77.70;;;;;;4107972;28;20064;-58
2022/05/24 01:13:04;;;;;;;4.47;1.02;;;18.60;77.60;;;;;;4113111;28;20055;-63
2022/05/24 01:15:09;;;;;;;1.70;0.82;;;18.60;77.80;;;;;;4117512;28;20151;-62
2022/05/24 01:17:11;;;;;;;2.08;0.93;;;18.60;77.90;;;;;;4110395;28;20057;-63
2022/05/24 01:19:34;;;;;;;1.60;0.95;;;18.70;77.90;;;;;;4110596;28;20424;-65
2022/05/24 01:21:36;;;;;;;5.05;0.88;;;18.70;77.90;;;;;;4110055;28;20364;-64
2022/05/24 01:24:13;;;;;;;1.25;0.80;;;18.80;77.80;;;;;;4110729;28;20516;-65
2022/05/24 01:26:21;;;;;;;1.02;0.82;;;18.80;77.80;;;;;;4115871;28;20433;-65
2022/05/24 01:28:44;;;;;;;1.02;0.80;;;18.80;77.70;;;;;;4118371;28;20611;-66
2022/05/24 01:30:46;;;;;;;2.17;0.80;;;18.80;77.50;;;;;;4110973;28;20540;-65
2022/05/24 01:37:31;;;;;;;2.25;0.70;;;18.90;77.40;;;;;;4111221;28;20053;-63
2022/05/24 01:39:35;;;;;;;0.90;0.60;;;19.00;77.40;;;;;;4111059;28;20126;-58
2022/05/24 01:41:43;;;;;;;1.17;0.88;;;19.00;77.30;;;;;;4118851;28;20479;-63
2022/05/24 01:43:47;;;;;;;0.80;0.70;;;19.00;77.10;;;;;;4116320;28;20096;-58
2022/05/24 01:46:12;;;;;;;1.85;0.80;;;19.00;77.00;;;;;;4110701;28;20452;-62
2022/05/24 01:48:18;;;;;;;0.82;0.63;;;19.10;77.00;;;;;;4117159;28;20057;-62
2022/05/24 01:50:23;;;;;;;0.82;0.60;;;19.10;76.80;;;;;;4114080;28;21591;-63
2022/05/24 01:52:45;;;;;;;1.05;0.70;;;19.20;76.80;;;;;;4110275;28;20045;-58
2022/05/24 01:54:52;;;;;;;1.65;0.68;;;19.20;76.70;;;;;;4116759;28;20068;-62
2022/05/24 01:56:59;;;;;;;1.23;1.10;;;19.20;76.50;;;;;;4114227;28;20864;-64
2022/05/24 01:59:03;;;;;;;1.23;0.55;;;19.20;76.40;;;;;;4110137;28;20050;-62
2022/05/24 02:01:15;;;;;;;1.90;0.65;;;19.20;76.50;;;;;;4109683;28;20052;-62
2022/05/24 02:03:17;;;;;;;2.05;0.70;;;19.30;76.40;;;;;;4109188;28;20056;-59
2022/05/24 02:05:39;;;;;;;1.73;0.80;;;19.30;76.30;;;;;;4118025;28;20560;-66
2022/05/24 02:07:41;;;;;;;2.47;0.88;;;19.30;76.30;;;;;;4110040;28;20045;-63
2022/05/24 02:09:46;;;;;;;1.52;0.50;;;19.30;76.20;;;;;;4148130;28;20384;-64
2022/05/24 02:11:48;;;;;;;1.50;0.90;;;19.30;76.20;;;;;;4114179;28;21216;-61
2022/05/24 02:13:58;;;;;;;0.98;0.60;;;19.30;76.30;;;;;;4110310;28;20073;-62
2022/05/24 02:16:04;;;;;;;1.35;0.60;;;19.30;76.30;;;;;;4110474;28;20076;-62
2022/05/24 02:18:13;;;;;;;2.03;0.65;;;19.30;76.20;;;;;;4110430;28;20054;-64
2022/05/24 02:20:22;;;;;;;1.75;0.80;;;19.30;76.20;;;;;;4112444;28;20053;-62
2022/05/24 02:22:27;;;;;;;1.98;0.70;;;19.30;76.20;;;;;;4117937;28;20127;-61
2022/05/24 02:24:29;;;;;;;3.55;0.70;;;19.30;76.20;;;;;;4113018;28;20115;-59
2022/05/24 02:26:32;;;;;;;2.05;0.68;;;19.40;76.10;;;;;;4111008;28;20101;-60
2022/05/24 02:28:34;;;;;;;1.33;0.60;;;19.40;76.10;;;;;;4111107;28;20107;-61
2022/05/24 02:30:44;;;;;;;2.25;0.88;;;19.40;76.10;;;;;;4118128;28;20052;-59
2022/05/24 02:32:47;;;;;;;0.95;0.70;;;19.40;76.10;;;;;;4117987;28;20052;-63
2022/05/24 02:34:49;;;;;;;0.95;0.50;;;19.40;76.00;;;;;;4110409;28;20740;-62
2022/05/24 02:36:51;;;;;;;2.30;0.60;;;19.40;75.90;;;;;;4109941;28;20045;-59
2022/05/24 02:38:53;;;;;;;1.15;0.70;;;19.40;75.90;;;;;;4118089;28;20107;-63
2022/05/24 02:43:16;;;;;;;4.38;0.80;;;19.40;75.90;;;;;;4114875;28;20061;-58
2022/05/24 02:45:18;;;;;;;7.25;1.42;;;19.40;75.60;;;;;;4107402;28;20432;-61
2022/05/24 02:47:20;;;;;;;2.80;0.70;;;19.40;75.40;;;;;;4106330;28;20107;-59
2022/05/24 02:49:22;;;;;;;1.60;0.60;;;19.40;75.80;;;;;;4114621;28;20529;-60
2022/05/24 02:51:26;;;;;;;4.60;0.73;;;19.40;75.40;;;;;;4108232;28;21212;-60
2022/05/24 02:53:28;;;;;;;3.17;1.13;;;19.30;75.40;;;;;;4107825;28;20056;-60
2022/05/24 02:55:30;;;;;;;3.28;0.80;;;19.30;75.50;;;;;;4112411;28;20366;-59
2022/05/24 02:57:32;;;;;;;1.20;0.60;;;19.30;75.50;;;;;;4113817;28;20445;-56
2022/05/24 02:59:35;;;;;;;1.95;0.55;;;19.30;75.60;;;;;;4107414;28;20045;-55
2022/05/24 03:01:37;;;;;;;4.28;0.70;;;19.30;75.60;;;;;;4108118;28;20058;-56
2022/05/24 03:03:39;;;;;;;6.05;0.77;;;19.30;75.60;;;;;;4116190;28;20057;-52
2022/05/24 03:05:41;;;;;;;2.58;0.80;;;19.30;75.70;;;;;;4107611;28;20056;-52
2022/05/24 03:10:04;;;;;;;4.72;0.60;;;19.30;75.90;;;;;;4104691;28;20053;-58
2022/05/24 03:14:30;;;;;;;3.88;0.93;;;19.60;75.90;;;;;;4107359;28;20053;-53
2022/05/24 03:16:32;;;;;;;4.80;0.70;;;20.40;73.90;;;;;;4107358;28;20140;-53
2022/05/24 03:18:34;;;;;;;1.25;0.68;;;21.10;71.90;;;;;;4114518;28;20052;-54
2022/05/24 03:20:36;;;;;;;1.33;0.57;;;21.70;70.00;;;;;;4107319;28;20053;-58
2022/05/24 03:22:39;;;;;;;2.55;0.93;;;22.30;68.60;;;;;;4107652;28;20041;-54
2022/05/24 03:24:41;;;;;;;1.75;0.73;;;22.80;67.30;;;;;;4112091;28;20512;-54
2022/05/24 03:26:43;;;;;;;1.42;0.63;;;23.30;66.20;;;;;;4111788;28;20388;-60
2022/05/24 03:28:47;;;;;;;7.78;1.30;;;23.70;65.00;;;;;;4106608;28;20057;-60
2022/05/24 03:30:50;;;;;;;8.63;1.45;;;24.00;64.20;;;;;;4108592;28;20064;-60
2022/05/24 03:32:52;;;;;;;3.20;0.70;;;24.30;63.40;;;;;;4114145;28;20080;-61
2022/05/24 03:34:54;;;;;;;3.00;0.60;;;24.60;62.50;;;;;;4108651;28;20177;-59
2022/05/24 03:36:56;;;;;;;4.38;0.75;;;24.90;61.90;;;;;;4109534;28;20060;-61
2022/05/24 03:38:58;;;;;;;4.15;0.80;;;25.20;61.10;;;;;;4115995;28;20045;-62
2022/05/24 03:41:00;;;;;;;4.43;0.70;;;25.50;60.80;;;;;;4113061;28;20541;-62
2022/05/24 03:43:03;;;;;;;1.33;0.65;;;25.70;60.70;;;;;;4110834;28;20057;-65
2022/05/24 03:45:08;;;;;;;1.80;0.47;;;26.00;60.70;;;;;;4111524;28;20049;-61
2022/05/24 03:47:10;;;;;;;2.65;0.60;;;26.00;60.70;;;;;;4117739;28;20053;-63
2022/05/24 03:49:14;;;;;;;1.55;0.50;;;25.70;61.40;;;;;;4109153;28;21580;-64
2022/05/24 03:51:16;;;;;;;0.88;0.45;;;25.40;62.20;;;;;;4110616;28;20077;-61
2022/05/24 03:53:18;;;;;;;1.45;0.38;;;25.10;63.10;;;;;;4115154;28;20131;-60
2022/05/24 03:55:20;;;;;;;1.15;0.50;;;24.80;63.70;;;;;;4109137;28;21954;-59
2022/05/24 03:59:43;;;;;;;3.58;0.73;;;24.40;64.70;;;;;;4115294;28;20614;-59
2022/05/24 04:01:45;;;;;;;2.03;0.60;;;24.20;64.90;;;;;;4112083;28;20050;-56
2022/05/24 04:03:47;;;;;;;0.65;0.47;;;24.10;65.80;;;;;;4116567;28;20059;-62
2022/05/24 04:05:50;;;;;;;2.28;0.80;;;24.00;66.00;;;;;;4116029;28;20629;-61
2022/05/24 04:07:52;;;;;;;0.80;0.52;;;24.00;66.20;;;;;;4110182;28;20089;-59
2022/05/24 04:09:54;;;;;;;2.10;0.90;;;23.90;66.20;;;;;;4108105;28;20055;-62
2022/05/24 04:11:57;;;;;;;0.77;0.52;;;23.80;66.40;;;;;;4115856;28;20064;-64
2022/05/24 04:13:59;;;;;;;1.60;0.50;;;23.80;66.50;;;;;;4108683;28;20060;-62
2022/05/24 04:16:01;;;;;;;2.47;0.60;;;23.80;66.50;;;;;;4113443;28;20440;-63
2022/05/24 04:18:03;;;;;;;4.55;1.63;;;23.70;66.50;;;;;;4121651;28;20045;-56
2022/05/24 04:20:07;;;;;;;1.10;0.70;;;23.70;66.50;;;;;;4114809;28;20817;-61
2022/05/24 04:22:09;;;;;;;1.75;0.68;;;23.70;66.50;;;;;;4112285;28;20208;-63
2022/05/24 04:24:12;;;;;;;0.82;0.40;;;23.70;66.50;;;;;;4116540;28;20529;-62
2022/05/24 04:26:14;;;;;;;2.65;0.60;;;23.70;66.70;;;;;;4121052;28;20478;-61
2022/05/24 04:28:19;;;;;;;1.42;0.50;;;23.70;66.90;;;;;;4110388;28;20064;-61
2022/05/24 04:30:22;;;;;;;0.80;0.52;;;23.70;66.90;;;;;;4107941;28;20053;-62
2022/05/24 04:32:24;;;;;;;0.73;0.40;;;23.70;67.00;;;;;;4113054;28;20061;-59
2022/05/24 04:34:26;;;;;;;0.52;0.40;;;23.70;66.90;;;;;;4113733;28;20054;-61
2022/05/24 04:36:28;;;;;;;0.77;0.50;;;23.70;66.90;;;;;;4105690;28;20052;-59
2022/05/24 04:38:30;;;;;;;0.90;0.47;;;23.70;66.80;;;;;;4109723;28;20053;-60
2022/05/24 04:42:53;;;;;;;1.63;0.40;;;23.80;66.70;;;;;;4110082;28;20046;-61
2022/05/24 04:44:58;;;;;;;1.20;0.30;;;23.80;66.70;;;;;;4113687;28;21270;-60
2022/05/24 04:47:09;;;;;;;3.35;1.05;;;23.80;66.50;;;;;;4106166;28;20049;-59
2022/05/24 04:49:12;;;;;;;0.40;0.40;;;23.80;66.40;;;;;;4104408;28;20144;-59
2022/05/24 04:51:14;;;;;;;3.70;0.63;;;23.80;66.30;;;;;;4106629;28;20545;-58
2022/05/24 04:53:16;;;;;;;1.50;0.40;;;23.80;66.20;;;;;;4113344;28;20129;-57
2022/05/24 04:55:18;;;;;;;0.95;0.63;;;23.80;66.70;;;;;;4107741;28;20095;-57
2022/05/24 04:57:22;;;;;;;0.93;0.50;;;23.80;66.10;;;;;;4106750;28;20473;-57
2022/05/24 04:59:24;;;;;;;1.10;0.40;;;23.80;66.10;;;;;;4110531;28;20053;-57
2022/05/24 05:01:26;;;;;;;4.40;0.68;;;23.90;66.10;;;;;;4104621;28;20719;-56
2022/05/24 05:03:28;;;;;;;3.63;0.60;;;23.90;66.10;;;;;;4105726;28;20085;-54
2022/05/24 05:05:32;;;;;;;0.30;0.30;;;23.90;66.10;;;;;;4108087;28;20489;-57
2022/05/24 05:07:34;;;;;;;0.63;0.57;;;23.90;66.10;;;;;;4114837;28;20057;-56
2022/05/24 05:09:38;;;;;;;1.42;0.30;;;23.90;66.10;;;;;;4107120;28;20705;-53
2022/05/24 05:11:40;;;;;;;1.77;0.70;;;23.90;66.00;;;;;;4106313;28;20588;-52
2022/05/24 05:13:42;;;;;;;2.38;0.50;;;23.80;66.20;;;;;;4112241;28;20132;-60
2022/05/24 05:15:44;;;;;;;0.75;0.32;;;23.80;66.20;;;;;;4110765;28;20835;-55
2022/05/24 05:17:46;;;;;;;1.45;0.70;;;23.80;66.20;;;;;;4137947;28;20134;-60
2022/05/24 05:19:49;;;;;;;1.35;0.70;;;23.80;66.20;;;;;;4109858;28;20381;-47
2022/05/24 05:21:51;;;;;;;1.85;0.55;;;23.80;66.60;;;;;;4113202;28;21172;-53
2022/05/24 05:23:53;;;;;;;0.50;0.40;;;23.90;66.30;;;;;;4107409;28;20560;-50
2022/05/24 05:25:55;;;;;;;1.38;0.70;;;23.90;66.40;;;;;;4105952;28;20053;-49
2022/05/24 05:27:57;;;;;;;4.40;0.60;;;23.80;66.50;;;;;;4115444;28;20089;-50
2022/05/24 05:32:23;;;;;;;1.52;0.52;;;23.80;66.60;;;;;;4115897;28;20064;-56
2022/05/24 05:34:25;;;;;;;2.15;0.57;;;23.80;66.70;;;;;;4107896;28;20436;-58
2022/05/24 05:36:28;;;;;;;1.15;0.55;;;23.80;66.60;;;;;;4106682;28;20467;-59
2022/05/24 05:38:31;;;;;;;1.75;0.60;;;23.80;67.00;;;;;;4109156;28;20140;-60
2022/05/24 05:40:33;;;;;;;0.65;0.55;;;23.80;67.50;;;;;;4114367;28;20632;-60
2022/05/24 05:42:35;;;;;;;0.40;0.40;;;23.70;67.50;;;;;;4106275;28;20661;-58
2022/05/24 05:44:40;;;;;;;0.43;0.43;;;23.60;67.60;;;;;;4106914;28;20061;-59
2022/05/24 05:46:42;;;;;;;0.65;0.47;;;23.60;67.80;;;;;;4117378;28;20046;-58
2022/05/24 05:48:46;;;;;;;0.30;0.20;;;23.50;68.00;;;;;;4111182;28;20850;-59
2022/05/24 05:50:49;;;;;;;0.40;0.40;;;23.50;68.00;;;;;;4108759;28;20057;-59
2022/05/24 05:52:51;;;;;;;0.93;0.40;;;23.40;68.50;;;;;;4112163;28;20053;-58
2022/05/24 05:54:53;;;;;;;0.40;0.40;;;23.40;68.30;;;;;;4114857;28;20053;-60
2022/05/24 05:56:55;;;;;;;0.52;0.50;;;23.40;68.50;;;;;;4109913;28;20927;-59
2022/05/24 05:58:57;;;;;;;1.98;0.45;;;23.30;68.50;;;;;;4108166;28;20370;-61
2022/05/24 06:01:01;;;;;;;1.00;0.32;;;23.30;68.40;;;;;;4116435;28;20072;-58
2022/05/24 06:03:04;;;;;;;1.27;0.52;;;23.30;68.50;;;;;;4109130;28;20061;-61
2022/05/24 06:05:07;;;;;;;0.63;0.40;;;23.30;68.60;;;;;;4108334;28;20046;-62
2022/05/24 06:07:10;;;;;;;1.75;0.70;;;23.20;68.60;;;;;;4113567;28;20049;-62
2022/05/24 06:09:14;;;;;;;0.77;0.50;;;23.20;68.70;;;;;;4115743;28;20065;-61
2022/05/24 06:11:16;;;;;;;1.75;0.40;;;23.20;68.70;;;;;;4110069;28;20053;-61
2022/05/24 06:13:18;;;;;;;2.22;0.70;;;23.20;68.80;;;;;;4108633;28;20102;-60
2022/05/24 06:15:20;;;;;;;2.00;0.70;;;23.10;68.20;;;;;;4117171;28;20054;-60
2022/05/24 06:17:22;;;;;;;2.40;0.90;;;23.10;68.90;;;;;;4110149;28;21790;-59
2022/05/24 06:19:24;;;;;;;1.33;0.68;;;23.10;69.00;;;;;;4108825;28;20053;-59
2022/05/24 06:21:26;;;;;;;1.00;0.68;;;23.10;69.10;;;;;;4114256;28;20137;-59
2022/05/24 06:23:28;;;;;;;0.85;0.60;;;23.10;69.30;;;;;;4112104;28;21080;-59
2022/05/24 06:25:31;;;;;;;0.82;0.68;;;23.10;69.30;;;;;;4106965;28;20065;-59
2022/05/24 06:27:33;;;;;;;1.17;0.65;;;23.10;69.60;;;;;;4112002;28;20065;-60
2022/05/24 06:29:36;;;;;;;2.40;0.88;;;23.10;69.30;;;;;;4116404;28;20203;-59
2022/05/24 06:31:38;;;;;;;2.65;0.95;;;23.10;69.10;;;;;;4106931;28;20050;-59
2022/05/24 06:33:40;;;;;;;1.60;1.05;;;23.10;69.20;;;;;;4108776;28;20210;-59
2022/05/24 06:35:43;;;;;;;2.17;0.80;;;23.00;69.30;;;;;;4112692;28;20517;-58
2022/05/24 06:37:45;;;;;;;2.97;0.85;;;23.00;69.40;;;;;;4126055;28;20734;-60
2022/05/24 06:39:48;;;;;;;1.05;0.60;;;23.00;69.40;;;;;;4109184;28;20049;-61
2022/05/24 06:41:50;;;;;;;;;;;22.90;69.90;;;;;;4112351;28;20109;-61
2022/05/24 06:43:52;;;;;;;2.45;0.80;;;22.90;69.60;;;;;;4114514;28;19936;-62
2022/05/24 06:45:54;;;;;;;3.30;0.70;;;22.90;69.80;;;;;;4105600;28;20463;-60
2022/05/24 06:47:56;;;;;;;1.33;0.80;;;22.80;69.90;;;;;;4142507;28;20650;-59
2022/05/24 06:49:59;;;;;;;1.47;0.80;;;22.80;69.90;;;;;;4114842;28;20450;-61
2022/05/24 06:52:01;;;;;;;1.92;0.75;;;22.80;70.00;;;;;;4106693;28;20500;-58
2022/05/24 06:54:04;;;;;;;2.00;0.80;;;22.70;70.20;;;;;;4104883;28;20385;-60
2022/05/24 06:56:07;;;;;;;3.60;1.00;;;22.70;70.30;;;;;;4110596;28;20272;-59
2022/05/24 06:58:09;;;;;;;1.65;0.90;;;22.70;70.50;;;;;;4105753;28;20979;-59
2022/05/24 07:02:34;;;;;;;2.15;1.00;;;22.60;70.50;;;;;;4108243;28;20061;-59
2022/05/24 07:04:38;;;;;;;2.53;0.60;;;22.60;70.60;;;;;;4104639;28;20374;-60
2022/05/24 07:06:39;;;;;;;;;;;22.60;70.70;;;;;;4107515;28;20279;-60
2022/05/24 07:08:45;;;;;;;1.38;0.68;;;22.60;70.70;;;;;;4117308;28;19925;-58
2022/05/24 07:10:47;;;;;;;1.98;0.70;;;22.50;70.80;;;;;;4126133;28;20356;-55
2022/05/24 07:13:02;;;;;;;2.55;0.80;;;22.50;70.90;;;;;;4112796;28;20048;-59
2022/05/24 07:15:06;;;;;;;2.03;0.93;;;22.50;71.00;;;;;;4112083;28;20147;-58
2022/05/24 07:17:07;;;;;;;;;;;22.50;71.00;;;;;;4113967;28;20557;-59
2022/05/24 07:19:09;;;;;;;1.52;0.80;;;22.40;71.00;;;;;;4118551;28;20330;-58
2022/05/24 07:21:11;;;;;;;1.58;0.90;;;22.40;71.00;;;;;;4110725;28;20057;-58
2022/05/24 07:23:17;;;;;;;1.23;0.55;;;22.40;71.10;;;;;;4113249;28;20075;-58
2022/05/24 07:25:19;;;;;;;0.65;0.60;;;22.40;71.10;;;;;;4116743;28;20481;-61
2022/05/24 07:27:22;;;;;;;1.23;0.70;;;22.40;71.30;;;;;;4111118;28;20718;-59
2022/05/24 07:29:25;;;;;;;2.17;0.75;;;22.30;71.20;;;;;;4106863;28;20175;-59
2022/05/24 07:31:27;;;;;;;1.23;0.82;;;22.30;70.70;;;;;;4111899;28;20092;-59
2022/05/24 07:33:29;;;;;;;2.70;1.17;;;22.30;71.20;;;;;;4119061;28;20053;-56
2022/05/24 07:35:31;;;;;;;2.08;1.38;;;22.30;71.00;;;;;;4112326;28;20060;-58
2022/05/24 07:37:34;;;;;;;2.30;1.70;;;22.30;70.80;;;;;;4111581;28;20144;-58
2022/05/24 07:39:36;;;;;;;3.47;2.03;;;22.20;70.60;;;;;;4118554;28;20576;-58
2022/05/24 07:46:19;;;;;;;3.20;1.80;;;22.10;70.30;;;;;;4108633;28;20144;-58
2022/05/24 07:48:21;;;;;;;3.40;2.00;;;22.10;70.30;;;;;;4116074;28;20196;-59
2022/05/24 07:50:23;;;;;;;4.05;2.08;;;22.10;70.20;;;;;;4111260;28;20064;-58
2022/05/24 07:52:27;;;;;;;4.50;2.30;;;22.00;70.20;;;;;;4110184;28;20151;-58
2022/05/24 07:54:29;;;;;;;4.22;2.45;;;22.00;70.20;;;;;;4132012;28;20952;-57
2022/05/24 07:56:31;;;;;;;3.60;2.10;;;22.00;70.20;;;;;;4111596;28;20139;-59
2022/05/24 07:58:33;;;;;;;3.20;2.17;;;22.00;70.30;;;;;;4110121;28;20136;-57
2022/05/24 08:00:36;;;;;;;3.05;1.98;;;21.90;70.20;;;;;;4114294;28;20392;-58
2022/05/24 08:02:39;;;;;;;3.08;2.00;;;21.90;70.30;;;;;;4116403;28;20055;-58
2022/05/24 08:04:43;;;;;;;3.00;1.90;;;21.90;70.20;;;;;;4109504;28;20607;-57
2022/05/24 08:06:45;;;;;;;2.97;1.83;;;21.90;70.20;;;;;;4107846;28;20060;-58
2022/05/24 08:08:47;;;;;;;4.60;1.90;;;21.90;70.30;;;;;;4109969;28;20170;-59
2022/05/24 08:10:50;;;;;;;2.90;2.05;;;21.80;70.30;;;;;;4105911;28;20542;-58
2022/05/24 08:12:52;;;;;;;3.83;2.28;;;21.80;70.30;;;;;;4107209;28;20057;-59
2022/05/24 08:14:54;;;;;;;3.10;2.13;;;21.70;70.30;;;;;;4113769;28;20148;-59
2022/05/24 08:16:56;;;;;;;3.17;2.17;;;21.70;70.30;;;;;;4113157;28;20385;-59
2022/05/24 08:18:58;;;;;;;3.33;2.00;;;21.70;70.20;;;;;;4106155;28;20539;-60
2022/05/24 08:21:01;;;;;;;3.75;2.20;;;21.70;70.50;;;;;;4106805;28;20041;-51
2022/05/24 08:23:03;;;;;;;3.50;2.20;;;21.70;70.70;;;;;;4111980;28;20605;-55
2022/05/24 08:25:07;;;;;;;4.95;2.30;;;21.70;70.70;;;;;;4105041;28;21377;-57
2022/05/24 08:27:11;;;;;;;4.45;2.00;;;21.60;70.60;;;;;;4104799;28;20057;-56
2022/05/24 08:29:13;;;;;;;3.80;2.15;;;21.60;70.50;;;;;;4111883;28;20142;-58
2022/05/24 08:31:16;;;;;;;3.70;1.90;;;21.60;70.70;;;;;;4113519;28;21033;-52
2022/05/24 08:33:19;;;;;;;3.83;1.75;;;21.60;71.10;;;;;;4107920;28;20052;-58
2022/05/24 08:35:21;;;;;;;3.53;2.10;;;21.60;71.10;;;;;;4108563;28;20061;-59
2022/05/24 08:37:23;;;;;;;3.78;1.88;;;21.60;71.90;;;;;;4116158;28;20139;-57
2022/05/24 08:39:25;;;;;;;2.70;1.60;;;21.50;71.30;;;;;;4108234;28;20182;-58
2022/05/24 08:42:03;;;;;;;4.40;1.83;;;21.50;71.40;;;;;;4109947;28;20052;-58
2022/05/24 08:49:17;;;;;;;4.25;2.20;;;21.50;71.60;;;;;;4116022;28;20081;-58
2022/05/24 08:51:30;;;;;;;3.63;1.80;;;21.50;71.70;;;;;;4110916;28;20058;-59
2022/05/24 08:53:42;;;;;;;3.45;1.70;;;21.50;71.60;;;;;;4112828;28;20047;-61
2022/05/24 08:55:44;;;;;;;2.75;1.60;;;21.50;71.70;;;;;;4117306;28;20057;-52
2022/05/24 08:57:58;;;;;;;2.50;1.50;;;21.50;71.90;;;;;;4121862;28;20080;-57
2022/05/24 09:00:11;;;;;;;3.70;1.92;;;21.50;71.90;;;;;;4132978;28;20135;-60
2022/05/24 09:02:13;;;;;;;2.50;1.70;;;21.50;71.90;;;;;;4134503;28;20054;-58
2022/05/24 09:04:16;;;;;;;3.50;2.00;;;21.50;71.50;;;;;;4119976;28;20801;-57
2022/05/24 09:06:24;;;;;;;4.25;2.15;;;21.50;72.00;;;;;;4118718;28;20049;-59
2022/05/24 09:08:52;;;;;;;4.97;2.10;;;21.50;72.00;;;;;;4117542;28;20033;-61
2022/05/24 09:10:57;;;;;;;2.45;1.70;;;21.50;72.00;;;;;;4111826;28;21412;-59
2022/05/24 09:13:47;;;;;;;3.55;2.00;;;21.50;72.00;;;;;;4108850;28;20427;-59
2022/05/24 09:15:56;;;;;;;2.60;1.73;;;21.40;72.00;;;;;;4076138;28;20164;-58
2022/05/24 09:18:24;;;;;;;2.75;1.65;;;21.40;71.90;;;;;;4108004;28;20080;-57
2022/05/24 09:20:29;;;;;;;3.35;1.80;;;21.40;71.90;;;;;;4127190;28;20041;-58
2022/05/24 09:22:35;;;;;;;3.28;1.73;;;21.40;72.00;;;;;;4115599;28;20065;-58
2022/05/24 09:24:57;;;;;;;3.03;1.80;;;21.40;72.70;;;;;;4109093;28;20498;-59
2022/05/24 09:27:14;;;;;;;4.55;2.22;;;21.40;72.10;;;;;;4115459;28;20053;-60
2022/05/24 09:29:17;;;;;;;3.17;2.03;;;21.40;71.70;;;;;;4110148;28;20052;-60
2022/05/24 09:31:35;;;;;;;7.53;2.10;;;21.30;71.70;;;;;;4116208;28;20893;-58
2022/05/24 09:33:41;;;;;;;4.72;2.42;;;21.30;71.80;;;;;;4114422;28;20053;-57
2022/05/24 09:35:44;;;;;;;3.20;1.95;;;21.30;71.90;;;;;;4115260;28;20130;-59
2022/05/24 09:38:11;;;;;;;3.50;2.40;;;21.30;71.90;;;;;;4107962;28;20050;-59
2022/05/24 09:40:21;;;;;;;3.50;1.70;;;21.30;72.00;;;;;;4115456;28;20045;-59
2022/05/24 09:42:29;;;;;;;3.80;2.10;;;21.30;72.10;;;;;;4115671;28;20140;-58
2022/05/24 09:45:00;;;;;;;3.95;2.10;;;21.30;72.20;;;;;;4114793;28;20771;-62
2022/05/24 09:47:02;;;;;;;2.80;2.00;;;21.30;72.10;;;;;;4092677;28;20042;-59
2022/05/24 09:49:21;;;;;;;3.10;1.80;;;21.30;72.10;;;;;;4112648;28;20115;-59
2022/05/24 09:51:41;;;;;;;3.90;2.05;;;21.30;72.10;;;;;;4107382;28;20061;-57
2022/05/24 09:53:54;;;;;;;3.08;1.83;;;21.30;72.20;;;;;;4109594;28;20076;-58
2022/05/24 09:56:01;;;;;;;2.70;1.88;;;21.30;72.30;;;;;;4106641;28;20049;-58
2022/05/24 09:58:21;;;;;;;3.25;1.70;;;21.30;72.20;;;;;;4106029;28;20049;-61
2022/05/24 10:00:23;;;;;;;3.38;1.80;;;21.30;72.20;;;;;;4107252;28;20619;-59
2022/05/24 10:02:34;;;;;;;2.30;1.60;;;21.30;72.10;;;;;;4106155;28;20522;-60
2022/05/24 10:04:40;;;;;;;3.25;2.00;;;21.30;72.10;;;;;;4106471;28;20536;-55
2022/05/24 10:06:51;;;;;;;2.22;1.73;;;21.30;72.20;;;;;;4112004;28;20057;-57
2022/05/24 10:09:18;;;;;;;2.78;1.80;;;21.30;72.20;;;;;;4112783;28;20077;-58
2022/05/24 10:11:31;;;;;;;3.70;2.15;;;21.30;72.20;;;;;;4108267;28;20064;-57
2022/05/24 10:13:36;;;;;;;;;;;21.30;72.30;;;;;;4108695;28;20173;-58
2022/05/24 10:15:59;;;;;;;3.40;2.10;;;21.20;72.20;;;;;;4106765;28;19932;-58
2022/05/24 10:18:09;;;;;;;2.50;2.00;;;21.30;72.20;;;;;;4107963;28;20631;-60
2022/05/24 10:20:17;;;;;;;3.20;1.98;;;21.30;72.10;;;;;;4106302;28;20091;-62
2022/05/24 10:22:49;;;;;;;3.17;2.00;;;21.30;72.10;;;;;;4107795;28;20133;-61
2022/05/24 10:25:28;;;;;;;2.97;2.00;;;21.30;72.10;;;;;;4112198;28;20557;-60
2022/05/24 10:27:42;;;;;;;2.92;1.88;;;21.20;72.10;;;;;;4116056;28;20053;-56
2022/05/24 10:29:55;;;;;;;3.13;1.95;;;21.20;72.10;;;;;;4114670;28;20445;-62
2022/05/24 10:32:02;;;;;;;18.13;3.70;;;21.20;72.20;;;;;;4113663;28;20091;-58
2022/05/24 10:39:40;;;;;;;9.40;2.72;;;21.10;71.60;;;;;;4107530;28;20080;-59
2022/05/24 10:42:00;;;;;;;7.82;2.80;;;21.10;71.80;;;;;;4107697;28;21145;-59
2022/05/24 10:44:02;;;;;;;8.68;2.92;;;21.10;71.80;;;;;;4117069;28;20079;-59
2022/05/24 10:46:36;;;;;;;7.50;2.17;;;21.10;72.00;;;;;;4111613;28;20041;-59
2022/05/24 10:49:06;;;;;;;5.32;2.33;;;21.10;72.00;;;;;;4111046;28;20065;-59
2022/05/24 10:51:32;;;;;;;5.63;2.38;;;21.00;72.10;;;;;;4114038;28;21188;-60
2022/05/24 10:53:54;;;;;;;10.65;2.53;;;21.00;72.70;;;;;;4111553;28;20388;-59
2022/05/24 10:56:14;;;;;;;11.55;2.10;;;21.10;73.00;;;;;;4111987;28;20147;-56
2022/05/24 10:58:18;;;;;;;8.52;2.25;;;21.00;73.00;;;;;;4113325;28;20053;-57
2022/05/24 11:00:24;;;;;;;6.32;1.92;;;21.00;73.10;;;;;;4112490;28;20437;-53
2022/05/24 11:02:45;;;;;;;8.68;2.08;;;21.00;73.00;;;;;;4112228;28;20054;-52
2022/05/24 11:04:58;;;;;;;7.07;2.35;;;21.00;73.00;;;;;;4112200;28;21066;-54
2022/05/24 11:07:11;;;;;;;7.25;2.10;;;21.00;73.10;;;;;;4112570;28;20545;-51
2022/05/24 11:09:21;;;;;;;3.83;1.80;;;21.00;73.10;;;;;;4110608;28;20694;-47
2022/05/24 11:11:50;;;;;;;2.70;1.65;;;21.00;73.20;;;;;;4109830;28;20556;-50
2022/05/24 11:13:58;;;;;;;3.40;1.85;;;20.90;73.20;;;;;;4117230;28;20053;-52
2022/05/24 11:16:07;;;;;;;5.22;2.00;;;20.90;73.30;;;;;;4119218;28;20107;-52
2022/05/24 11:18:19;;;;;;;3.20;1.73;;;20.90;73.30;;;;;;4117590;28;20041;-55
2022/05/24 11:20:39;;;;;;;5.20;1.77;;;20.90;73.30;;;;;;4118254;28;20244;-57
2022/05/24 11:22:52;;;;;;;4.47;2.35;;;20.90;73.30;;;;;;4117289;28;20054;-57
2022/05/24 11:25:12;;;;;;;2.45;1.58;;;20.90;73.30;;;;;;4115017;28;20144;-58
2022/05/24 11:27:43;;;;;;;2.42;1.60;;;20.90;73.20;;;;;;4110898;28;20088;-59
2022/05/24 11:29:53;;;;;;;3.72;1.85;;;20.90;73.30;;;;;;4117859;28;20079;-57
2022/05/24 11:32:11;;;;;;;4.25;1.90;;;20.80;73.50;;;;;;4118699;28;20049;-56
2022/05/24 11:34:26;;;;;;;4.22;1.90;;;20.80;73.40;;;;;;4115259;28;20049;-58
2022/05/24 11:36:37;;;;;;;6.97;1.90;;;20.80;74.00;;;;;;4115912;28;20100;-56